Time;durP1;ratioP1;P1;durP2;ratioP2;P2;SDS_P1;SDS_P2;PMS_P1;PMS_P2;Temp;Humidity;BMP_temperature;BMP_pressure;BME280_temperature;BME280_humidity;BME280_pressure;Samples;Min_cycle;Max_cycle;Signal;HPM_P1;HPM_P2
2022/10/25 00:00:11;;;;;;;2.40;2.20;;;10.90;99.90;;;;;;4973994;28;20186;-68
2022/10/25 00:02:36;;;;;;;2.90;2.37;;;10.90;99.90;;;;;;4973612;28;20180;-69
2022/10/25 00:05:03;;;;;;;3.00;2.10;;;10.90;99.90;;;;;;4974075;28;20444;-69
2022/10/25 00:07:29;;;;;;;3.17;2.30;;;10.80;99.90;;;;;;4973912;28;20218;-69
2022/10/25 00:09:54;;;;;;;8.20;2.60;;;10.80;99.90;;;;;;4972719;28;20467;-69
2022/10/25 00:12:20;;;;;;;3.50;2.07;;;10.80;99.90;;;;;;4972950;28;20271;-68
2022/10/25 00:14:45;;;;;;;2.00;1.73;;;10.80;99.90;;;;;;4974096;28;20204;-69
2022/10/25 00:17:11;;;;;;;5.23;2.80;;;10.80;99.90;;;;;;4973339;28;20714;-69
2022/10/25 00:19:36;;;;;;;2.33;1.87;;;10.80;99.90;;;;;;4972412;28;20259;-69
2022/10/25 00:22:02;;;;;;;6.20;2.50;;;10.80;99.90;;;;;;4973671;28;20193;-69
2022/10/25 00:24:27;;;;;;;4.63;1.77;;;10.80;99.90;;;;;;4972277;28;20204;-69
2022/10/25 00:26:53;;;;;;;4.80;2.40;;;10.80;99.90;;;;;;4973577;28;20204;-69
2022/10/25 00:29:18;;;;;;;3.80;2.10;;;10.80;99.90;;;;;;4972603;28;20271;-69
2022/10/25 00:31:44;;;;;;;4.53;2.27;;;10.80;99.90;;;;;;4973005;28;20208;-69
2022/10/25 00:34:10;;;;;;;5.03;2.23;;;10.80;99.90;;;;;;4972579;28;20574;-69
2022/10/25 00:36:35;;;;;;;3.90;2.67;;;10.70;99.90;;;;;;4971887;28;20181;-69
2022/10/25 00:39:01;;;;;;;1.80;1.70;;;10.70;99.90;;;;;;4972920;28;20255;-69
2022/10/25 00:41:29;;;;;;;6.27;2.20;;;10.70;99.90;;;;;;4973719;28;20189;-69
2022/10/25 00:44:16;;;;;;;4.83;2.63;;;10.70;99.90;;;;;;4973488;28;20353;-69
2022/10/25 00:46:43;;;;;;;2.93;2.13;;;10.60;99.90;;;;;;4974001;28;20522;-69
2022/10/25 00:49:14;;;;;;;6.73;1.87;;;10.50;99.90;;;;;;4973291;28;20415;-69
2022/10/25 00:51:47;;;;;;;7.90;1.97;;;10.60;99.90;;;;;;4971183;28;20462;-69
2022/10/25 00:54:17;;;;;;;4.40;2.07;;;10.60;99.90;;;;;;4973048;28;20464;-69
2022/10/25 00:56:46;;;;;;;8.00;2.10;;;10.50;99.90;;;;;;4972518;28;20443;-69
2022/10/25 00:59:17;;;;;;;2.43;2.23;;;10.50;99.90;;;;;;4971986;28;21447;-69
2022/10/25 01:01:43;;;;;;;2.00;1.87;;;10.40;99.90;;;;;;4972322;28;20443;-69
2022/10/25 01:04:14;;;;;;;6.43;2.10;;;10.50;99.90;;;;;;4972911;28;20570;-69
2022/10/25 01:06:44;;;;;;;7.33;2.20;;;10.40;99.90;;;;;;4972277;28;20222;-69
2022/10/25 01:09:16;;;;;;;15.63;3.00;;;10.40;99.90;;;;;;4970949;28;20443;-69
2022/10/25 01:11:42;;;;;;;8.60;2.07;;;10.40;99.90;;;;;;4972746;28;20879;-69
2022/10/25 01:14:10;;;;;;;3.97;2.53;;;10.40;99.90;;;;;;4972879;28;20459;-68
2022/10/25 01:16:54;;;;;;;6.30;2.37;;;10.40;99.90;;;;;;4972853;28;20480;-68
2022/10/25 01:19:39;;;;;;;3.17;2.03;;;10.40;99.90;;;;;;4970772;28;20438;-69
2022/10/25 01:22:10;;;;;;;6.00;1.90;;;10.30;99.90;;;;;;4972366;28;20926;-69
2022/10/25 01:24:47;;;;;;;2.83;2.03;;;10.30;99.90;;;;;;4972657;28;20467;-69
2022/10/25 01:27:13;;;;;;;3.10;2.23;;;10.30;99.90;;;;;;4972198;28;20501;-69
2022/10/25 01:30:11;;;;;;;2.63;2.33;;;10.30;99.90;;;;;;4971988;28;20443;-69
2022/10/25 01:32:42;;;;;;;3.03;2.63;;;10.40;99.90;;;;;;4967024;28;20291;-68
2022/10/25 01:35:34;;;;;;;8.67;3.20;;;10.40;99.90;;;;;;4972447;28;20458;-69
2022/10/25 01:38:38;;;;;;;5.30;3.33;;;10.50;99.90;;;;;;4970117;28;20543;-68
2022/10/25 01:41:11;;;;;;;2.73;2.53;;;10.60;99.90;;;;;;4971664;28;20434;-69
2022/10/25 01:43:58;;;;;;;4.50;2.20;;;10.70;99.90;;;;;;4971812;28;20478;-69
2022/10/25 01:46:35;;;;;;;4.30;2.10;;;10.70;99.90;;;;;;4965274;28;20445;-69
2022/10/25 01:49:04;;;;;;;4.30;2.30;;;10.70;99.90;;;;;;4972208;28;20486;-68
2022/10/25 01:51:30;;;;;;;2.97;2.30;;;10.70;99.90;;;;;;4971510;28;20455;-69
2022/10/25 01:53:56;;;;;;;3.10;2.20;;;10.70;99.90;;;;;;4972134;28;20455;-69
2022/10/25 01:56:54;;;;;;;2.73;2.30;;;10.70;99.90;;;;;;4971662;28;20667;-68
2022/10/25 01:59:29;;;;;;;4.63;2.63;;;10.60;99.90;;;;;;4957218;28;20199;-69
2022/10/25 02:02:14;;;;;;;4.40;2.40;;;10.60;99.90;;;;;;4971699;28;20463;-69
2022/10/25 02:04:49;;;;;;;3.40;2.73;;;10.60;99.90;;;;;;4970997;28;20460;-68
2022/10/25 02:07:35;;;;;;;3.33;2.70;;;10.60;99.90;;;;;;4971634;28;20437;-69
2022/10/25 02:10:10;;;;;;;2.57;2.33;;;10.60;99.90;;;;;;4969749;28;20443;-69
2022/10/25 02:12:42;;;;;;;2.57;2.30;;;10.70;99.90;;;;;;4971914;28;20537;-69
2022/10/25 02:15:12;;;;;;;4.27;2.50;;;10.60;99.90;;;;;;4972048;28;20432;-69
2022/10/25 02:17:45;;;;;;;6.27;2.80;;;10.60;99.90;;;;;;4971489;28;20466;-68
2022/10/25 02:20:15;;;;;;;3.17;2.60;;;10.60;99.90;;;;;;4971914;28;20514;-69
2022/10/25 02:22:42;;;;;;;3.93;3.50;;;10.50;99.90;;;;;;4971590;28;20863;-69
2022/10/25 02:25:08;;;;;;;5.43;2.43;;;10.60;99.90;;;;;;4971260;28;20948;-69
2022/10/25 02:27:36;;;;;;;7.00;2.20;;;10.50;99.90;;;;;;4971466;28;20940;-68
2022/10/25 02:30:03;;;;;;;3.30;3.00;;;10.50;99.90;;;;;;4971635;28;20498;-69
2022/10/25 02:32:30;;;;;;;7.83;3.70;;;10.60;99.90;;;;;;4971188;28;20467;-69
2022/10/25 02:34:56;;;;;;;4.40;2.77;;;10.60;99.90;;;;;;4971906;28;20486;-69
2022/10/25 02:37:21;;;;;;;7.33;3.00;;;10.60;99.90;;;;;;4972179;28;20443;-69
2022/10/25 02:39:48;;;;;;;2.87;2.67;;;10.70;99.90;;;;;;4971057;28;20298;-69
2022/10/25 02:42:13;;;;;;;4.23;2.90;;;10.70;99.90;;;;;;4973998;28;20620;-68
2022/10/25 02:44:39;;;;;;;2.97;2.67;;;10.70;99.90;;;;;;4975485;28;20463;-69
2022/10/25 02:47:04;;;;;;;3.13;2.63;;;10.70;99.90;;;;;;4975572;28;20192;-69
2022/10/25 02:49:30;;;;;;;4.37;3.17;;;10.70;99.90;;;;;;4975100;28;20188;-68
2022/10/25 02:51:55;;;;;;;4.63;2.67;;;10.70;99.90;;;;;;4973972;28;20277;-69
2022/10/25 02:54:21;;;;;;;6.47;2.73;;;10.70;99.90;;;;;;4975328;28;20199;-68
2022/10/25 02:56:51;;;;;;;7.13;2.90;;;10.80;99.90;;;;;;4974984;28;20168;-69
2022/10/25 02:59:17;;;;;;;4.43;3.37;;;10.80;99.90;;;;;;4974923;28;20188;-68
2022/10/25 03:01:42;;;;;;;2.90;2.67;;;10.70;99.90;;;;;;4973295;28;20842;-69
2022/10/25 03:04:08;;;;;;;4.10;2.83;;;10.70;99.90;;;;;;4974962;28;20913;-68
2022/10/25 03:06:33;;;;;;;6.63;3.03;;;10.80;99.90;;;;;;4975163;28;20180;-68
2022/10/25 03:08:59;;;;;;;5.50;2.60;;;10.80;99.90;;;;;;4974889;28;20251;-69
2022/10/25 03:11:24;;;;;;;4.27;3.00;;;10.80;99.90;;;;;;4974931;28;20235;-69
2022/10/25 03:13:50;;;;;;;8.60;3.60;;;10.80;99.90;;;;;;4974323;28;20322;-69
2022/10/25 03:16:15;;;;;;;3.07;2.87;;;10.70;99.90;;;;;;4975096;28;20180;-68
2022/10/25 03:18:41;;;;;;;4.07;2.80;;;10.70;99.90;;;;;;4974667;28;20207;-68
2022/10/25 03:21:06;;;;;;;7.67;2.77;;;10.70;99.90;;;;;;4974260;28;20184;-69
2022/10/25 03:23:32;;;;;;;8.43;3.30;;;10.80;99.90;;;;;;4974689;28;20613;-68
2022/10/25 03:25:58;;;;;;;3.70;3.30;;;10.80;99.90;;;;;;4973474;28;20558;-69
2022/10/25 03:28:26;;;;;;;4.10;2.77;;;10.80;99.90;;;;;;4974258;28;20495;-68
2022/10/25 03:30:52;;;;;;;7.10;2.90;;;10.80;99.90;;;;;;4974797;28;20793;-68
2022/10/25 03:33:17;;;;;;;4.57;2.93;;;10.80;99.90;;;;;;4973662;28;20471;-68
2022/10/25 03:35:43;;;;;;;6.23;3.20;;;10.80;99.90;;;;;;4974634;28;20271;-69
2022/10/25 03:38:08;;;;;;;6.87;3.60;;;10.80;99.90;;;;;;4973802;28;20259;-68
2022/10/25 03:40:34;;;;;;;4.70;3.10;;;10.80;99.90;;;;;;4974296;28;20267;-69
2022/10/25 03:42:59;;;;;;;7.60;3.07;;;10.80;99.90;;;;;;4974363;28;20212;-68
2022/10/25 03:45:25;;;;;;;5.50;4.00;;;10.80;99.90;;;;;;4973975;28;20625;-68
2022/10/25 03:47:51;;;;;;;9.97;3.47;;;10.90;99.90;;;;;;4973695;28;20200;-69
2022/10/25 03:50:16;;;;;;;4.67;3.10;;;10.80;99.90;;;;;;4974198;28;20177;-68
2022/10/25 03:52:42;;;;;;;3.40;3.07;;;10.80;99.90;;;;;;4974401;28;20208;-68
2022/10/25 03:55:08;;;;;;;3.53;3.23;;;10.80;99.90;;;;;;4974283;28;20588;-69
2022/10/25 03:57:33;;;;;;;5.20;2.97;;;10.90;99.90;;;;;;4973415;28;20180;-69
2022/10/25 03:59:59;;;;;;;3.90;2.77;;;10.80;99.90;;;;;;4973192;28;20444;-69
2022/10/25 04:02:25;;;;;;;6.03;3.57;;;10.80;99.90;;;;;;4974155;28;20177;-68
2022/10/25 04:04:51;;;;;;;6.47;3.17;;;10.80;99.90;;;;;;4973369;28;20195;-68
2022/10/25 04:07:17;;;;;;;4.20;3.60;;;10.90;99.90;;;;;;4973621;28;20440;-69
2022/10/25 04:09:42;;;;;;;5.20;3.10;;;10.80;99.90;;;;;;4969643;28;20680;-69
2022/10/25 04:12:08;;;;;;;8.13;3.23;;;10.80;99.90;;;;;;4973694;28;20219;-69
2022/10/25 04:14:33;;;;;;;7.20;3.17;;;10.80;99.90;;;;;;4973292;28;20361;-68
2022/10/25 04:16:59;;;;;;;3.20;2.90;;;10.80;99.90;;;;;;4970367;28;20267;-68
2022/10/25 04:19:24;;;;;;;6.30;3.20;;;10.80;99.90;;;;;;4973679;28;20732;-68
2022/10/25 04:21:50;;;;;;;8.00;3.00;;;10.80;99.90;;;;;;4972186;28;20196;-69
2022/10/25 04:24:16;;;;;;;6.20;3.20;;;10.80;99.90;;;;;;4971534;28;20232;-69
2022/10/25 04:26:41;;;;;;;6.33;2.87;;;10.90;99.90;;;;;;4971389;28;20192;-68
2022/10/25 04:29:09;;;;;;;6.50;3.60;;;10.80;99.90;;;;;;4973314;28;20654;-68
2022/10/25 04:31:34;;;;;;;6.00;3.33;;;10.80;99.90;;;;;;4972099;28;20239;-69
2022/10/25 04:34:00;;;;;;;5.03;3.33;;;10.90;99.90;;;;;;4972882;28;20888;-68
2022/10/25 04:36:28;;;;;;;6.80;3.50;;;10.80;99.90;;;;;;4972850;28;20514;-68
2022/10/25 04:38:53;;;;;;;7.80;3.30;;;10.80;99.90;;;;;;4973092;28;20191;-68
2022/10/25 04:41:20;;;;;;;4.30;3.07;;;10.80;99.90;;;;;;4972707;28;20444;-68
2022/10/25 04:43:46;;;;;;;9.33;3.70;;;10.80;99.90;;;;;;4971138;28;20209;-68
2022/10/25 04:46:13;;;;;;;5.57;3.10;;;10.80;99.90;;;;;;4973355;28;20981;-68
2022/10/25 04:48:40;;;;;;;4.00;3.30;;;10.90;99.90;;;;;;4971657;28;20855;-69
2022/10/25 04:51:06;;;;;;;3.87;3.47;;;10.90;99.90;;;;;;4973172;28;20443;-68
2022/10/25 04:53:32;;;;;;;4.03;2.63;;;10.90;99.90;;;;;;4970523;28;21128;-69
2022/10/25 04:56:06;;;;;;;4.73;3.30;;;10.90;99.90;;;;;;4968793;28;20443;-68
2022/10/25 04:58:32;;;;;;;4.93;3.73;;;10.90;99.90;;;;;;4969655;28;20647;-68
2022/10/25 05:01:05;;;;;;;4.57;3.83;;;10.90;99.90;;;;;;4973412;28;20503;-68
2022/10/25 05:03:31;;;;;;;6.67;3.37;;;10.90;99.90;;;;;;4971877;28;20988;-69
2022/10/25 05:06:08;;;;;;;5.50;3.20;;;10.90;99.90;;;;;;4970154;28;20501;-68
2022/10/25 05:08:34;;;;;;;4.30;3.00;;;10.90;99.90;;;;;;4970813;28;20439;-69
2022/10/25 05:10:59;;;;;;;5.00;3.60;;;10.90;99.90;;;;;;4971339;28;20565;-68
2022/10/25 05:13:25;;;;;;;7.03;3.97;;;10.90;99.90;;;;;;4972349;28;20215;-68
2022/10/25 05:15:55;;;;;;;3.07;2.73;;;10.80;99.90;;;;;;4971734;28;20283;-68
2022/10/25 05:18:20;;;;;;;6.40;4.10;;;10.80;99.90;;;;;;4981952;28;20192;-68
2022/10/25 05:20:58;;;;;;;5.10;4.10;;;10.80;99.90;;;;;;4970088;28;20435;-69
2022/10/25 05:23:24;;;;;;;6.60;5.97;;;10.70;99.90;;;;;;4968530;28;20246;-68
2022/10/25 05:26:22;;;;;;;5.80;5.30;;;10.70;99.90;;;;;;4972417;28;20454;-68
2022/10/25 05:28:50;;;;;;;10.30;9.30;;;10.70;99.90;;;;;;4957672;28;20955;-68
2022/10/25 05:31:21;;;;;;;8.87;7.33;;;10.70;99.90;;;;;;4971659;28;20535;-68
2022/10/25 05:33:52;;;;;;;12.77;10.60;;;10.80;99.90;;;;;;4968382;28;20502;-68
2022/10/25 05:36:19;;;;;;;11.60;10.40;;;10.70;99.90;;;;;;4969096;28;20963;-69
2022/10/25 05:38:45;;;;;;;9.80;5.40;;;10.70;99.90;;;;;;4971502;28;20538;-69
2022/10/25 05:41:12;;;;;;;9.17;6.33;;;10.70;99.90;;;;;;4969556;28;20524;-68
2022/10/25 05:43:38;;;;;;;6.07;3.40;;;10.70;99.90;;;;;;4971170;28;20207;-69
2022/10/25 05:46:19;;;;;;;7.37;6.10;;;10.70;99.90;;;;;;4971866;28;20428;-68
2022/10/25 05:48:45;;;;;;;5.37;4.07;;;10.70;99.90;;;;;;4971256;28;20477;-68
2022/10/25 05:51:17;;;;;;;5.40;4.33;;;10.70;99.90;;;;;;4971525;28;20800;-68
2022/10/25 05:53:48;;;;;;;5.03;3.70;;;10.80;99.90;;;;;;4971599;28;20330;-68
2022/10/25 05:56:14;;;;;;;7.40;4.10;;;11.00;99.90;;;;;;4967205;28;20451;-68
2022/10/25 05:58:40;;;;;;;8.07;5.27;;;10.90;99.90;;;;;;4971335;28;20462;-68
2022/10/25 06:01:08;;;;;;;5.00;4.53;;;10.90;99.90;;;;;;4971490;28;20448;-68
2022/10/25 06:03:34;;;;;;;4.20;3.83;;;10.90;99.90;;;;;;4970915;28;20462;-68
2022/10/25 06:06:01;;;;;;;4.87;4.30;;;10.80;99.90;;;;;;4971577;28;20435;-68
2022/10/25 06:08:27;;;;;;;5.93;4.67;;;10.80;99.90;;;;;;4969607;28;20432;-67
2022/10/25 06:10:53;;;;;;;5.30;3.70;;;10.80;99.90;;;;;;4970890;28;20969;-67
2022/10/25 06:13:19;;;;;;;8.73;4.00;;;10.80;99.90;;;;;;4969631;28;20475;-67
2022/10/25 06:15:44;;;;;;;7.63;4.10;;;10.80;99.90;;;;;;4970543;28;20192;-67
2022/10/25 06:18:10;;;;;;;5.20;3.90;;;10.80;99.90;;;;;;4976404;28;20183;-67
2022/10/25 06:20:35;;;;;;;8.60;4.57;;;10.80;99.90;;;;;;4976746;28;20176;-67
2022/10/25 06:23:00;;;;;;;5.87;4.23;;;10.80;99.90;;;;;;4961194;28;20211;-67
2022/10/25 06:25:26;;;;;;;8.10;4.33;;;10.80;99.90;;;;;;4946851;28;20214;-67
2022/10/25 06:27:51;;;;;;;7.53;4.77;;;10.90;99.90;;;;;;4967855;28;20605;-68
2022/10/25 06:30:17;;;;;;;5.13;4.33;;;10.80;99.90;;;;;;4975302;28;20263;-67
2022/10/25 06:32:43;;;;;;;6.50;4.13;;;10.80;99.90;;;;;;4974302;28;20287;-67
2022/10/25 06:35:08;;;;;;;4.80;4.40;;;10.90;99.90;;;;;;4966389;28;20180;-67
2022/10/25 06:37:33;;;;;;;3.90;3.30;;;10.90;99.90;;;;;;4975751;28;20565;-67
2022/10/25 06:39:59;;;;;;;7.07;3.20;;;11.00;99.90;;;;;;4965295;28;20180;-67
2022/10/25 06:42:24;;;;;;;4.80;3.53;;;11.10;99.90;;;;;;4973420;28;20246;-67
2022/10/25 06:44:50;;;;;;;5.63;3.20;;;11.20;99.90;;;;;;4964132;28;20181;-67
2022/10/25 06:47:15;;;;;;;3.97;3.47;;;11.40;99.90;;;;;;4956943;28;20184;-67
2022/10/25 06:49:41;;;;;;;11.60;5.33;;;11.70;99.90;;;;;;4973664;28;20180;-67
2022/10/25 06:52:07;;;;;;;6.10;3.53;;;11.90;99.90;;;;;;4975828;28;20211;-67
2022/10/25 06:54:32;;;;;;;8.20;3.10;;;12.00;99.90;;;;;;4975359;28;20196;-67
2022/10/25 06:56:58;;;;;;;4.90;3.80;;;12.30;99.90;;;;;;4975723;28;20180;-67
2022/10/25 06:59:23;;;;;;;11.30;4.30;;;12.70;99.90;;;;;;4975579;28;20697;-67
2022/10/25 07:01:49;;;;;;;5.30;4.13;;;12.70;99.90;;;;;;4975517;28;20191;-67
2022/10/25 07:04:15;;;;;;;4.83;3.20;;;13.00;99.90;;;;;;4978515;28;20674;-67
2022/10/25 07:06:41;;;;;;;6.80;3.67;;;13.20;99.90;;;;;;4975465;28;20208;-67
2022/10/25 07:09:09;;;;;;;5.23;3.00;;;13.30;99.90;;;;;;4974777;28;20432;-67
2022/10/25 07:11:34;;;;;;;4.70;3.30;;;13.40;99.90;;;;;;4975643;28;20295;-67
2022/10/25 07:14:01;;;;;;;4.30;3.20;;;13.50;99.90;;;;;;4974870;28;20533;-67
2022/10/25 07:16:27;;;;;;;4.60;3.03;;;13.50;99.90;;;;;;4975657;28;20175;-67
2022/10/25 07:19:01;;;;;;;7.67;3.33;;;13.60;99.90;;;;;;4974988;28;20510;-67
2022/10/25 07:21:28;;;;;;;10.50;6.37;;;13.70;99.90;;;;;;4958741;28;20491;-67
2022/10/25 07:23:54;;;;;;;4.50;4.10;;;13.90;99.90;;;;;;4956195;28;20565;-67
2022/10/25 07:26:25;;;;;;;3.10;2.60;;;14.10;99.90;;;;;;4964525;28;20522;-67
2022/10/25 07:28:52;;;;;;;4.57;3.07;;;14.30;99.90;;;;;;4955770;28;20637;-67
2022/10/25 07:31:21;;;;;;;4.73;2.60;;;14.50;99.90;;;;;;4974169;28;20965;-67
2022/10/25 07:33:48;;;;;;;3.73;3.33;;;14.40;99.90;;;;;;4968755;28;20522;-67
2022/10/25 07:36:13;;;;;;;6.20;2.33;;;14.70;99.90;;;;;;4975255;28;20428;-67
2022/10/25 07:38:39;;;;;;;8.70;3.40;;;14.90;99.90;;;;;;4974541;28;20938;-67
2022/10/25 07:41:05;;;;;;;5.07;2.30;;;15.20;99.90;;;;;;4974861;28;20272;-67
2022/10/25 07:43:31;;;;;;;2.43;2.03;;;15.50;99.90;;;;;;4972294;28;20204;-67
2022/10/25 07:45:57;;;;;;;4.30;2.80;;;16.00;99.90;;;;;;4968039;28;20436;-67
2022/10/25 07:48:22;;;;;;;4.50;2.93;;;16.30;99.90;;;;;;4974772;28;20183;-67
2022/10/25 07:50:48;;;;;;;3.30;2.30;;;16.20;99.90;;;;;;4972804;28;20218;-67
2022/10/25 07:53:14;;;;;;;2.87;2.53;;;15.80;99.90;;;;;;4975192;28;20222;-67
2022/10/25 07:55:39;;;;;;;6.43;1.97;;;15.90;99.90;;;;;;4966946;28;20184;-67
2022/10/25 07:58:08;;;;;;;5.00;2.00;;;16.20;99.90;;;;;;4955628;28;20200;-67
2022/10/25 08:00:35;;;;;;;4.23;2.73;;;16.30;99.90;;;;;;4956699;28;20627;-67
2022/10/25 08:03:00;;;;;;;3.10;2.43;;;16.60;99.90;;;;;;4974672;28;20455;-67
2022/10/25 08:05:26;;;;;;;3.47;2.53;;;16.80;99.90;;;;;;4968884;28;21112;-67
2022/10/25 08:07:52;;;;;;;4.67;2.17;;;16.90;99.90;;;;;;4965140;28;20189;-67
2022/10/25 08:10:19;;;;;;;3.23;2.30;;;17.20;99.90;;;;;;4971614;28;20671;-67
2022/10/25 08:12:47;;;;;;;5.67;2.43;;;17.50;99.90;;;;;;4956043;28;20240;-67
2022/10/25 08:15:12;;;;;;;9.07;2.27;;;17.40;99.90;;;;;;4974138;28;20583;-67
2022/10/25 08:17:38;;;;;;;2.60;2.10;;;17.50;99.90;;;;;;4974550;28;20486;-67
2022/10/25 08:20:04;;;;;;;2.50;2.30;;;17.50;99.90;;;;;;4964298;28;20890;-67
2022/10/25 08:22:29;;;;;;;5.20;2.27;;;17.60;99.90;;;;;;4974558;28;20578;-67
2022/10/25 08:24:55;;;;;;;4.60;2.73;;;17.50;99.90;;;;;;4973909;28;20187;-67
2022/10/25 08:27:20;;;;;;;3.20;2.10;;;17.80;99.90;;;;;;4957187;28;20268;-67
2022/10/25 08:29:46;;;;;;;2.80;1.87;;;18.00;99.90;;;;;;4974038;28;20263;-67
2022/10/25 08:32:12;;;;;;;4.63;2.60;;;18.10;99.90;;;;;;4963234;28;20205;-67
2022/10/25 08:34:37;;;;;;;5.27;1.60;;;18.90;99.90;;;;;;4974044;28;20220;-68
2022/10/25 08:37:03;;;;;;;3.13;1.93;;;19.00;99.90;;;;;;4973709;28;20425;-67
2022/10/25 08:39:29;;;;;;;9.70;2.00;;;19.00;99.90;;;;;;4972931;28;20188;-67
2022/10/25 08:42:00;;;;;;;2.30;1.90;;;19.50;99.90;;;;;;4974068;28;20222;-67
2022/10/25 08:44:44;;;;;;;1.80;1.60;;;20.00;99.90;;;;;;4972896;28;20204;-67
2022/10/25 08:47:19;;;;;;;1.63;1.47;;;20.00;99.90;;;;;;4973971;28;20516;-67
2022/10/25 08:49:54;;;;;;;2.80;1.80;;;19.80;99.90;;;;;;4972952;28;20442;-67
2022/10/25 08:52:41;;;;;;;3.27;2.50;;;19.60;99.90;;;;;;4973717;28;20502;-66
2022/10/25 08:55:16;;;;;;;6.60;2.00;;;20.10;99.90;;;;;;4970383;28;20459;-67
2022/10/25 08:57:45;;;;;;;3.23;2.23;;;20.10;99.90;;;;;;4954599;28;20424;-67
2022/10/25 09:00:19;;;;;;;2.20;1.80;;;20.50;99.90;;;;;;4973613;28;20427;-67
2022/10/25 09:02:53;;;;;;;5.43;2.27;;;20.90;99.90;;;;;;4954111;28;20958;-67
2022/10/25 09:05:27;;;;;;;3.33;2.43;;;21.90;99.90;;;;;;4954310;28;20420;-67
2022/10/25 09:08:06;;;;;;;2.90;2.07;;;21.80;99.90;;;;;;4957040;28;20966;-67
2022/10/25 09:10:38;;;;;;;5.33;2.00;;;23.20;99.90;;;;;;4957791;28;20436;-67
2022/10/25 09:13:09;;;;;;;3.63;3.10;;;23.20;99.90;;;;;;4954131;28;20483;-67
2022/10/25 09:16:01;;;;;;;3.77;1.47;;;23.10;99.90;;;;;;4962496;28;20424;-67
2022/10/25 09:18:54;;;;;;;2.80;2.37;;;22.80;99.90;;;;;;4968577;28;20898;-68
2022/10/25 09:21:54;;;;;;;1.97;1.30;;;22.70;99.90;;;;;;4962309;28;20506;-67
2022/10/25 09:24:22;;;;;;;2.70;1.40;;;22.90;99.90;;;;;;4973175;28;21124;-67
2022/10/25 09:26:58;;;;;;;3.57;1.47;;;24.00;99.90;;;;;;4972871;28;20933;-67
2022/10/25 09:29:32;;;;;;;3.80;2.00;;;24.50;99.90;;;;;;4956708;28;20510;-67
2022/10/25 09:31:59;;;;;;;2.23;1.83;;;24.50;99.90;;;;;;4970602;28;20565;-67
2022/10/25 09:34:31;;;;;;;2.47;1.57;;;23.40;99.90;;;;;;4971214;28;20475;-67
2022/10/25 09:37:10;;;;;;;2.30;1.47;;;23.50;99.90;;;;;;4973194;28;20420;-67
2022/10/25 09:40:01;;;;;;;2.20;1.50;;;22.90;99.90;;;;;;4972106;28;20906;-67
2022/10/25 09:42:45;;;;;;;6.10;2.77;;;23.80;99.90;;;;;;4973219;28;20792;-67
2022/10/25 09:45:21;;;;;;;4.23;2.23;;;24.00;99.90;;;;;;4972632;28;20481;-67
2022/10/25 09:47:51;;;;;;;3.60;1.80;;;24.00;99.90;;;;;;5004121;28;20438;-67
2022/10/25 09:50:16;;;;;;;4.50;2.33;;;24.60;99.90;;;;;;4972779;28;20419;-67
2022/10/25 09:53:10;;;;;;;2.53;1.60;;;25.20;99.90;;;;;;4970966;28;20471;-67
2022/10/25 09:55:55;;;;;;;4.27;2.07;;;24.60;99.90;;;;;;4953692;28;20212;-67
2022/10/25 09:58:30;;;;;;;3.20;1.80;;;24.40;99.90;;;;;;4956648;28;20435;-67
2022/10/25 10:01:16;;;;;;;2.30;2.10;;;24.20;99.90;;;;;;4955511;28;20964;-66
2022/10/25 10:03:42;;;;;;;4.97;1.50;;;24.80;99.90;;;;;;4959011;28;20980;-67
2022/10/25 10:06:22;;;;;;;4.37;2.10;;;24.70;99.90;;;;;;4972110;28;20431;-67
2022/10/25 10:08:58;;;;;;;2.40;1.77;;;25.00;99.90;;;;;;4964454;28;20606;-67
2022/10/25 10:11:24;;;;;;;4.60;1.70;;;24.70;99.90;;;;;;4964283;28;20419;-67
2022/10/25 10:13:55;;;;;;;7.37;1.60;;;24.80;99.90;;;;;;4963101;28;20452;-67
2022/10/25 10:16:26;;;;;;;2.70;1.83;;;24.60;99.90;;;;;;4966426;28;20431;-67
2022/10/25 10:19:11;;;;;;;3.83;2.53;;;25.20;99.90;;;;;;4962998;28;20429;-67
2022/10/25 10:21:48;;;;;;;10.90;9.93;;;26.40;99.50;;;;;;4971129;28;20930;-65
2022/10/25 10:24:51;;;;;;;3.80;3.20;;;27.20;97.90;;;;;;4964303;28;20479;-67
2022/10/25 10:27:22;;;;;;;3.43;1.63;;;27.90;94.80;;;;;;4975250;28;20933;-67
2022/10/25 10:30:00;;;;;;;11.43;4.40;;;28.60;92.50;;;;;;4963554;28;20438;-67
2022/10/25 10:32:37;;;;;;;2.90;2.20;;;29.50;91.10;;;;;;4968928;28;20462;-64
2022/10/25 10:35:06;;;;;;;3.33;1.70;;;29.80;86.20;;;;;;4966068;28;20785;-65
2022/10/25 10:37:33;;;;;;;3.40;1.37;;;29.90;82.00;;;;;;4963844;28;20435;-63
2022/10/25 10:40:03;;;;;;;3.33;1.57;;;28.70;82.10;;;;;;4962977;28;20424;-64
2022/10/25 10:42:28;;;;;;;2.77;1.67;;;29.00;85.10;;;;;;4968705;28;20455;-66
2022/10/25 10:45:06;;;;;;;3.37;1.63;;;29.80;82.50;;;;;;4962640;28;20455;-65
2022/10/25 10:47:33;;;;;;;4.73;2.13;;;29.60;79.50;;;;;;4967145;28;20180;-66
2022/10/25 10:50:00;;;;;;;4.77;1.93;;;28.70;80.30;;;;;;4958713;28;20437;-66
2022/10/25 10:52:38;;;;;;;1.80;1.60;;;29.80;81.00;;;;;;4953114;29;20474;-67
2022/10/25 10:55:07;;;;;;;7.03;2.50;;;30.90;76.10;;;;;;4961906;28;20523;-67
2022/10/25 10:57:34;;;;;;;3.17;1.60;;;30.80;72.50;;;;;;4953483;28;20452;-67
2022/10/25 11:00:01;;;;;;;3.00;1.77;;;30.00;74.40;;;;;;4953442;28;20428;-67
2022/10/25 11:02:45;;;;;;;2.60;1.70;;;31.10;72.20;;;;;;4973823;28;20424;-67
2022/10/25 11:05:24;;;;;;;2.80;2.10;;;31.60;68.60;;;;;;4975705;28;20438;-67
2022/10/25 11:08:16;;;;;;;5.10;3.10;;;31.40;68.50;;;;;;4975499;28;20519;-67
2022/10/25 11:10:42;;;;;;;7.30;4.80;;;30.70;67.90;;;;;;4968304;28;20442;-67
2022/10/25 11:13:18;;;;;;;4.20;1.60;;;30.10;71.00;;;;;;4975217;28;20479;-67
2022/10/25 11:15:55;;;;;;;3.50;1.87;;;30.60;69.00;;;;;;4975842;28;20262;-67
2022/10/25 11:18:33;;;;;;;2.20;1.60;;;32.20;66.70;;;;;;4964815;28;20424;-67
2022/10/25 11:21:10;;;;;;;2.13;1.60;;;34.30;57.10;;;;;;4956434;28;20428;-67
2022/10/25 11:24:06;;;;;;;2.90;1.87;;;33.50;55.60;;;;;;4956130;28;20524;-67
2022/10/25 11:26:55;;;;;;;2.43;1.77;;;32.80;55.10;;;;;;4956396;28;20479;-67
2022/10/25 11:29:45;;;;;;;2.30;1.20;;;32.30;55.60;;;;;;4957505;28;20432;-66
2022/10/25 11:32:40;;;;;;;3.10;1.87;;;32.80;54.30;;;;;;4970099;28;20609;-67
2022/10/25 11:35:19;;;;;;;1.60;1.43;;;31.90;54.90;;;;;;4975554;28;20411;-68
2022/10/25 11:37:51;;;;;;;3.47;1.23;;;31.40;55.70;;;;;;4963786;28;20905;-68
2022/10/25 11:40:18;;;;;;;1.97;1.87;;;32.20;54.60;;;;;;4955660;28;20421;-67
2022/10/25 11:42:51;;;;;;;1.63;1.53;;;31.70;54.50;;;;;;4955974;28;20564;-67
2022/10/25 11:45:43;;;;;;;3.30;1.83;;;32.00;55.20;;;;;;4964013;28;20804;-68
2022/10/25 11:48:28;;;;;;;5.23;2.00;;;31.40;57.00;;;;;;4955780;28;20455;-68
2022/10/25 11:51:31;;;;;;;3.07;1.50;;;31.80;54.10;;;;;;4964279;28;20436;-67
2022/10/25 11:54:08;;;;;;;2.10;1.47;;;30.40;55.90;;;;;;4955835;28;20527;-67
2022/10/25 11:57:19;;;;;;;2.30;1.53;;;30.10;57.40;;;;;;4958589;28;20578;-68
2022/10/25 12:00:10;;;;;;;2.13;1.60;;;30.90;55.50;;;;;;4973529;28;20430;-68
2022/10/25 12:03:17;;;;;;;2.67;2.37;;;30.30;56.40;;;;;;4974324;28;20423;-67
2022/10/25 12:06:17;;;;;;;3.13;1.80;;;30.70;56.30;;;;;;4957972;28;20448;-67
2022/10/25 12:09:05;;;;;;;2.00;1.43;;;32.00;54.40;;;;;;4958158;28;20427;-67
2022/10/25 12:11:36;;;;;;;5.17;1.23;;;31.50;53.80;;;;;;4958019;28;20428;-67
2022/10/25 12:14:10;;;;;;;2.63;2.00;;;31.80;52.90;;;;;;4954318;28;20935;-68
2022/10/25 12:16:37;;;;;;;8.57;6.33;;;33.30;51.50;;;;;;4956153;28;20427;-68
2022/10/25 12:19:25;;;;;;;3.60;1.50;;;33.70;51.30;;;;;;4955090;28;20856;-64
2022/10/25 12:21:55;;;;;;;1.30;1.17;;;34.50;50.30;;;;;;4956721;28;20427;-65
2022/10/25 12:24:28;;;;;;;2.90;1.47;;;35.20;48.40;;;;;;4961694;28;20456;-65
2022/10/25 12:26:55;;;;;;;1.13;1.07;;;35.00;48.00;;;;;;4966377;28;20427;-66
2022/10/25 12:29:28;;;;;;;2.87;1.70;;;34.30;48.20;;;;;;4960415;28;20429;-65
2022/10/25 12:31:57;;;;;;;4.43;1.50;;;33.60;47.50;;;;;;4957887;28;20519;-66
2022/10/25 12:34:31;;;;;;;3.93;1.40;;;34.60;47.90;;;;;;4972347;28;20890;-66
2022/10/25 12:37:03;;;;;;;1.63;1.50;;;33.90;48.30;;;;;;4964528;28;20427;-66
2022/10/25 12:39:40;;;;;;;1.87;1.20;;;34.50;48.40;;;;;;4974131;28;20416;-66
2022/10/25 12:42:13;;;;;;;2.00;1.73;;;32.60;49.70;;;;;;4969143;28;20499;-66
2022/10/25 12:44:51;;;;;;;3.90;1.40;;;30.90;52.60;;;;;;4953537;28;20449;-66
2022/10/25 12:47:42;;;;;;;3.80;1.60;;;30.60;53.20;;;;;;4963029;28;20459;-67
2022/10/25 12:50:28;;;;;;;2.80;2.60;;;31.00;52.50;;;;;;4952850;28;20499;-66
2022/10/25 12:53:18;;;;;;;2.13;1.37;;;32.20;50.90;;;;;;4972467;28;20593;-66
2022/10/25 12:56:01;;;;;;;3.90;2.50;;;33.10;51.00;;;;;;4956914;28;20526;-67
2022/10/25 12:58:55;;;;;;;1.90;1.53;;;34.70;49.70;;;;;;4958899;28;20796;-66
2022/10/25 13:01:37;;;;;;;2.80;1.70;;;34.20;48.20;;;;;;4973423;28;20420;-66
2022/10/25 13:04:15;;;;;;;6.13;1.60;;;31.70;50.40;;;;;;4973063;28;20455;-66
2022/10/25 13:06:46;;;;;;;2.00;1.37;;;31.90;50.90;;;;;;4954670;28;20428;-67